Time;durP1;ratioP1;P1;durP2;ratioP2;P2;SDS_P1;SDS_P2;PMS_P1;PMS_P2;Temp;Humidity;BMP_temperature;BMP_pressure;BME280_temperature;BME280_humidity;BME280_pressure;Samples;Min_cycle;Max_cycle;Signal;HPM_P1;HPM_P2
2022/11/30 00:00:35;;;;;;;41.38;24.95;;;;;;;;;;5031884;28;20116;-62
2022/11/30 00:03:01;;;;;;;44.55;24.58;;;;;;;;;;5030553;28;20041;-63
2022/11/30 00:05:27;;;;;;;44.92;26.98;;;;;;;;;;5032272;28;20101;-62
2022/11/30 00:07:53;;;;;;;42.88;25.45;;;;;;;;;;5031035;28;20025;-61
2022/11/30 00:10:21;;;;;;;42.90;25.27;;;;;;;;;;5031888;28;20034;-64
2022/11/30 00:12:47;;;;;;;41.47;24.63;;;;;;;;;;5031958;28;20541;-63
2022/11/30 00:15:15;;;;;;;46.35;25.35;;;;;;;;;;5030417;28;20025;-62
2022/11/30 00:17:42;;;;;;;42.90;26.23;;;;;;;;;;5030814;28;20022;-63
2022/11/30 00:20:08;;;;;;;38.63;22.73;;;;;;;;;;5031791;28;20573;-64
2022/11/30 00:22:34;;;;;;;38.70;22.83;;;;;;;;;;5031739;28;20048;-63
2022/11/30 00:25:02;;;;;;;39.05;22.85;;;;;;;;;;5031588;28;20057;-64
2022/11/30 00:27:28;;;;;;;33.63;21.42;;;;;;;;;;5032345;28;20040;-61
2022/11/30 00:29:55;;;;;;;39.17;23.20;;;;;;;;;;5030390;28;20055;-64
2022/11/30 00:32:21;;;;;;;33.38;21.30;;;;;;;;;;5030406;28;20030;-64
2022/11/30 00:34:47;;;;;;;35.60;21.85;;;;;;;;;;5031431;28;20473;-62
2022/11/30 00:37:13;;;;;;;37.00;23.02;;;;;;;;;;5030467;28;20041;-64
2022/11/30 00:39:39;;;;;;;33.83;20.33;;;;;;;;;;5030183;28;20406;-64
2022/11/30 00:42:05;;;;;;;35.50;21.52;;;;;;;;;;5031578;28;20026;-63
2022/11/30 00:44:31;;;;;;;31.25;19.65;;;;;;;;;;5031280;28;20021;-63
2022/11/30 00:46:57;;;;;;;32.22;18.38;;;;;;;;;;5030102;28;20024;-60
2022/11/30 00:49:23;;;;;;;33.17;20.33;;;;;;;;;;5030103;28;20463;-64
2022/11/30 00:51:49;;;;;;;32.00;19.40;;;;;;;;;;5030152;28;20116;-64
2022/11/30 00:54:15;;;;;;;30.42;19.45;;;;;;;;;;5029910;28;20453;-61
2022/11/30 00:56:41;;;;;;;29.85;19.48;;;;;;;;;;5030375;28;20374;-63
2022/11/30 00:59:07;;;;;;;31.48;18.58;;;;;;;;;;5030249;28;20068;-64
2022/11/30 01:01:34;;;;;;;30.75;18.25;;;;;;;;;;5035036;28;20025;-66
2022/11/30 01:04:00;;;;;;;29.27;17.27;;;;;;;;;;5034701;28;20048;-64
2022/11/30 01:06:26;;;;;;;28.58;18.20;;;;;;;;;;5035062;28;20029;-63
2022/11/30 01:08:53;;;;;;;25.48;16.70;;;;;;;;;;5034981;28;20022;-64
2022/11/30 01:11:28;;;;;;;29.33;17.02;;;;;;;;;;5035019;28;20482;-63
2022/11/30 01:13:55;;;;;;;25.52;15.93;;;;;;;;;;5033267;28;20389;-64
2022/11/30 01:16:23;;;;;;;25.13;15.38;;;;;;;;;;5034768;28;20440;-63
2022/11/30 01:18:49;;;;;;;27.05;15.95;;;;;;;;;;5033392;28;20132;-64
2022/11/30 01:21:17;;;;;;;29.15;17.98;;;;;;;;;;5033184;28;20025;-63
2022/11/30 01:23:43;;;;;;;29.13;18.50;;;;;;;;;;5034259;28;20049;-64
2022/11/30 01:26:09;;;;;;;28.45;17.75;;;;;;;;;;5034637;28;20101;-62
2022/11/30 01:28:35;;;;;;;29.83;18.55;;;;;;;;;;5034494;28;20021;-61
2022/11/30 01:31:02;;;;;;;31.42;18.35;;;;;;;;;;5033334;28;20648;-64
2022/11/30 01:33:28;;;;;;;31.55;19.33;;;;;;;;;;5032899;28;20026;-62
2022/11/30 01:36:11;;;;;;;33.38;20.73;;;;;;;;;;5034269;28;20036;-63
2022/11/30 01:38:41;;;;;;;32.35;20.58;;;;;;;;;;5034428;28;20025;-65
2022/11/30 01:41:08;;;;;;;33.35;19.52;;;;;;;;;;5032916;28;20094;-63
2022/11/30 01:43:39;;;;;;;31.02;19.17;;;;;;;;;;5034052;28;20026;-63
2022/11/30 01:46:06;;;;;;;31.52;19.92;;;;;;;;;;5034248;28;20025;-63
2022/11/30 01:48:32;;;;;;;31.20;20.50;;;;;;;;;;5033883;28;20508;-64
2022/11/30 01:50:58;;;;;;;30.25;19.08;;;;;;;;;;5034052;28;20075;-63
2022/11/30 01:53:24;;;;;;;32.13;18.90;;;;;;;;;;5033832;28;20029;-64
2022/11/30 01:55:50;;;;;;;30.98;19.98;;;;;;;;;;5032779;28;20032;-64
2022/11/30 01:58:19;;;;;;;30.80;19.95;;;;;;;;;;5034056;28;20025;-64
2022/11/30 02:00:46;;;;;;;29.20;18.88;;;;;;;;;;5033753;28;20064;-61
2022/11/30 02:03:31;;;;;;;30.23;19.35;;;;;;;;;;5032404;28;20033;-63
2022/11/30 02:05:57;;;;;;;30.00;19.08;;;;;;;;;;5033809;28;20485;-62
2022/11/30 02:08:23;;;;;;;32.67;20.60;;;;;;;;;;5032580;28;20022;-62
2022/11/30 02:10:52;;;;;;;33.60;21.00;;;;;;;;;;5032034;28;20037;-63
2022/11/30 02:13:27;;;;;;;32.20;20.35;;;;;;;;;;5033532;28;20029;-62
2022/11/30 02:16:11;;;;;;;30.38;19.85;;;;;;;;;;5033796;28;20425;-64
2022/11/30 02:18:52;;;;;;;32.65;21.08;;;;;;;;;;5033348;28;20036;-63
2022/11/30 02:21:35;;;;;;;30.17;19.50;;;;;;;;;;5032219;28;20036;-63
2022/11/30 02:24:16;;;;;;;30.15;20.02;;;;;;;;;;5033227;28;20047;-64
2022/11/30 02:26:49;;;;;;;31.58;21.08;;;;;;;;;;5032107;28;20029;-61
2022/11/30 02:29:15;;;;;;;31.83;20.15;;;;;;;;;;5033337;28;20033;-63
2022/11/30 02:31:44;;;;;;;31.35;20.73;;;;;;;;;;5032215;28;20029;-63
2022/11/30 02:34:12;;;;;;;30.58;20.35;;;;;;;;;;5033183;28;20029;-63
2022/11/30 02:36:39;;;;;;;32.45;21.52;;;;;;;;;;5032009;28;20033;-60
2022/11/30 02:39:05;;;;;;;34.08;20.98;;;;;;;;;;5031814;28;20533;-63
2022/11/30 02:41:35;;;;;;;33.33;21.60;;;;;;;;;;5032931;28;20025;-65
2022/11/30 02:44:03;;;;;;;32.40;20.70;;;;;;;;;;5032963;28;20109;-63
2022/11/30 02:46:33;;;;;;;34.28;22.90;;;;;;;;;;5033035;28;20482;-62
2022/11/30 02:49:15;;;;;;;36.65;22.70;;;;;;;;;;5033125;28;20030;-62
2022/11/30 02:51:43;;;;;;;37.33;23.67;;;;;;;;;;5031921;28;20060;-62
2022/11/30 02:54:09;;;;;;;39.10;23.65;;;;;;;;;;5032751;28;20025;-64
2022/11/30 02:56:35;;;;;;;37.83;23.52;;;;;;;;;;5032544;28;20048;-63
2022/11/30 02:59:01;;;;;;;35.55;23.67;;;;;;;;;;5031210;28;20033;-63
2022/11/30 03:01:27;;;;;;;36.20;23.15;;;;;;;;;;5032463;28;20029;-63
2022/11/30 03:03:53;;;;;;;41.25;23.05;;;;;;;;;;5032609;28;20489;-64
2022/11/30 03:06:19;;;;;;;41.00;23.23;;;;;;;;;;5032783;28;20064;-62
2022/11/30 03:08:45;;;;;;;39.72;24.73;;;;;;;;;;5031309;28;20032;-64
2022/11/30 03:11:11;;;;;;;34.65;23.60;;;;;;;;;;5031235;28;20029;-64
2022/11/30 03:13:37;;;;;;;37.20;22.33;;;;;;;;;;5032276;28;20039;-64
2022/11/30 03:16:10;;;;;;;38.55;23.88;;;;;;;;;;5032488;28;20037;-64
2022/11/30 03:18:36;;;;;;;39.15;24.40;;;;;;;;;;5032610;28;20036;-64
2022/11/30 03:21:09;;;;;;;37.00;24.10;;;;;;;;;;5032389;28;20037;-64
2022/11/30 03:23:36;;;;;;;35.78;22.80;;;;;;;;;;5030315;28;20108;-66
2022/11/30 03:26:01;;;;;;;36.17;24.17;;;;;;;;;;5031170;28;20398;-63
2022/11/30 03:28:28;;;;;;;34.63;22.35;;;;;;;;;;5032367;28;20021;-63
2022/11/30 03:30:54;;;;;;;37.75;23.00;;;;;;;;;;5030961;28;20026;-64
2022/11/30 03:33:20;;;;;;;38.80;22.83;;;;;;;;;;5032117;28;20100;-65
2022/11/30 03:35:46;;;;;;;39.13;24.95;;;;;;;;;;5030961;28;20180;-64
2022/11/30 03:38:12;;;;;;;35.30;22.55;;;;;;;;;;5032243;28;20022;-64
2022/11/30 03:40:38;;;;;;;33.53;21.77;;;;;;;;;;5031745;28;20033;-63
2022/11/30 03:43:05;;;;;;;36.97;24.88;;;;;;;;;;5031888;28;20072;-63
2022/11/30 03:45:31;;;;;;;37.83;23.45;;;;;;;;;;5030958;28;20025;-62
2022/11/30 03:47:57;;;;;;;38.75;23.13;;;;;;;;;;5032167;28;20021;-64
2022/11/30 03:50:23;;;;;;;38.47;22.98;;;;;;;;;;5030752;28;20026;-64
2022/11/30 03:52:49;;;;;;;36.10;23.90;;;;;;;;;;5032100;28;20028;-64
2022/11/30 03:55:15;;;;;;;35.63;22.67;;;;;;;;;;5032112;28;20018;-61
2022/11/30 03:57:41;;;;;;;36.03;24.25;;;;;;;;;;5032046;28;20079;-61
2022/11/30 04:00:07;;;;;;;35.80;22.25;;;;;;;;;;5032268;28;20451;-62
2022/11/30 04:02:33;;;;;;;36.92;23.73;;;;;;;;;;5031207;28;20029;-61
2022/11/30 04:04:59;;;;;;;37.95;22.55;;;;;;;;;;5032144;28;20030;-61
2022/11/30 04:07:25;;;;;;;38.67;25.08;;;;;;;;;;5030858;28;20017;-60
2022/11/30 04:09:51;;;;;;;35.17;22.35;;;;;;;;;;5032144;28;20029;-61
2022/11/30 04:12:17;;;;;;;40.47;23.55;;;;;;;;;;5032378;28;20032;-61
2022/11/30 04:14:43;;;;;;;38.15;24.05;;;;;;;;;;5030988;28;20022;-64
2022/11/30 04:17:09;;;;;;;37.35;23.55;;;;;;;;;;5032298;28;20022;-61
2022/11/30 04:19:35;;;;;;;37.80;23.77;;;;;;;;;;5031637;28;20021;-63
2022/11/30 04:22:01;;;;;;;40.42;24.58;;;;;;;;;;5032828;28;20441;-62
2022/11/30 04:24:27;;;;;;;39.10;25.30;;;;;;;;;;5030521;28;20025;-62
2022/11/30 04:26:53;;;;;;;38.70;25.33;;;;;;;;;;5031457;28;20418;-63
2022/11/30 04:29:19;;;;;;;43.95;26.83;;;;;;;;;;5031025;28;20045;-63
2022/11/30 04:31:45;;;;;;;41.20;25.17;;;;;;;;;;5030772;28;20059;-59
2022/11/30 04:34:11;;;;;;;39.10;24.67;;;;;;;;;;5032341;28;20458;-63
2022/11/30 04:36:37;;;;;;;39.35;26.08;;;;;;;;;;5035577;28;20083;-62
2022/11/30 04:39:03;;;;;;;44.47;25.23;;;;;;;;;;5034417;28;20407;-61
2022/11/30 04:41:29;;;;;;;39.80;24.70;;;;;;;;;;5034241;28;20033;-64
2022/11/30 04:43:55;;;;;;;37.55;24.50;;;;;;;;;;5033846;28;20101;-62
2022/11/30 04:46:21;;;;;;;45.25;24.92;;;;;;;;;;5033960;28;20021;-61
2022/11/30 04:48:47;;;;;;;44.53;24.73;;;;;;;;;;5034145;28;20017;-64
2022/11/30 04:51:13;;;;;;;40.78;25.27;;;;;;;;;;5033753;28;20021;-63
2022/11/30 04:53:39;;;;;;;40.38;25.05;;;;;;;;;;5034947;28;20504;-63
2022/11/30 04:56:10;;;;;;;39.53;26.67;;;;;;;;;;5034130;28;20021;-63
2022/11/30 04:58:37;;;;;;;40.10;25.48;;;;;;;;;;5033800;28;20112;-62
2022/11/30 05:01:03;;;;;;;40.22;24.00;;;;;;;;;;5033727;28;20021;-62
2022/11/30 05:03:29;;;;;;;40.88;24.77;;;;;;;;;;5034766;28;20068;-63
2022/11/30 05:05:55;;;;;;;39.75;24.77;;;;;;;;;;5035062;28;20470;-58
2022/11/30 05:08:21;;;;;;;40.60;25.77;;;;;;;;;;5034811;28;20076;-62
2022/11/30 05:10:51;;;;;;;44.47;28.75;;;;;;;;;;5034651;28;20116;-63
2022/11/30 05:13:17;;;;;;;42.67;25.98;;;;;;;;;;5034216;28;20029;-61
2022/11/30 05:15:43;;;;;;;39.08;24.27;;;;;;;;;;5034614;28;20440;-63
2022/11/30 05:18:09;;;;;;;40.88;25.05;;;;;;;;;;5034364;28;20049;-61
2022/11/30 05:20:35;;;;;;;41.47;25.17;;;;;;;;;;5034350;28;20124;-64
2022/11/30 05:23:01;;;;;;;45.83;25.63;;;;;;;;;;5033285;28;20026;-62
2022/11/30 05:25:27;;;;;;;44.17;26.75;;;;;;;;;;5033522;28;20017;-64
2022/11/30 05:27:53;;;;;;;43.30;25.27;;;;;;;;;;5034754;28;20025;-63
2022/11/30 05:30:19;;;;;;;43.92;27.58;;;;;;;;;;5032885;28;20075;-61
2022/11/30 05:32:45;;;;;;;49.30;26.90;;;;;;;;;;5034509;28;20026;-63
2022/11/30 05:35:11;;;;;;;47.88;28.23;;;;;;;;;;5034669;28;20025;-64
2022/11/30 05:37:37;;;;;;;49.20;26.67;;;;;;;;;;5032524;28;20059;-62
2022/11/30 05:40:03;;;;;;;46.70;27.75;;;;;;;;;;5056353;23;20120;-62
2022/11/30 05:42:29;;;;;;;48.72;27.88;;;;;;;;;;5033393;28;20044;-63
2022/11/30 05:44:55;;;;;;;48.80;28.23;;;;;;;;;;5047832;28;20104;-55
2022/11/30 05:47:21;;;;;;;49.85;29.23;;;;;;;;;;5033438;28;20378;-61
2022/11/30 05:49:47;;;;;;;46.75;28.13;;;;;;;;;;5033906;28;20033;-60
2022/11/30 05:52:13;;;;;;;47.67;27.60;;;;;;;;;;5033543;28;20074;-60
2022/11/30 05:54:39;;;;;;;50.92;29.02;;;;;;;;;;5015287;28;20508;-60
2022/11/30 05:57:05;;;;;;;53.40;27.58;;;;;;;;;;5012327;28;20059;-58
2022/11/30 05:59:31;;;;;;;49.10;27.83;;;;;;;;;;5013483;28;20083;-59
2022/11/30 06:01:57;;;;;;;51.22;27.92;;;;;;;;;;5013409;28;20026;-59
2022/11/30 06:04:23;;;;;;;52.30;27.65;;;;;;;;;;5013558;28;20029;-60
2022/11/30 06:06:51;;;;;;;49.47;28.88;;;;;;;;;;5012231;28;20497;-58
2022/11/30 06:09:17;;;;;;;51.47;28.33;;;;;;;;;;5013560;28;20022;-62
2022/11/30 06:11:43;;;;;;;45.13;28.10;;;;;;;;;;5030254;28;20278;-61
2022/11/30 06:14:08;;;;;;;54.90;29.33;;;;;;;;;;5033271;28;20025;-61
2022/11/30 06:16:38;;;;;;;51.03;29.85;;;;;;;;;;5032967;28;20040;-61
2022/11/30 06:19:04;;;;;;;51.50;29.15;;;;;;;;;;5033096;28;20482;-63
2022/11/30 06:21:30;;;;;;;46.35;26.50;;;;;;;;;;5033037;28;20116;-59
2022/11/30 06:23:56;;;;;;;43.30;24.83;;;;;;;;;;5031514;28;20024;-60
2022/11/30 06:26:22;;;;;;;41.63;24.63;;;;;;;;;;5032882;28;20132;-57
2022/11/30 06:28:48;;;;;;;38.42;23.20;;;;;;;;;;5032982;28;20034;-60
2022/11/30 06:31:14;;;;;;;34.78;20.85;;;;;;;;;;5032610;28;20029;-60
2022/11/30 06:33:40;;;;;;;39.88;22.48;;;;;;;;;;5032032;28;20031;-59
2022/11/30 06:36:06;;;;;;;35.22;21.70;;;;;;;;;;5026367;28;20030;-61
2022/11/30 06:38:32;;;;;;;32.92;21.33;;;;;;;;;;5012666;28;20042;-60
2022/11/30 06:41:06;;;;;;;36.03;23.52;;;;;;;;;;5012159;28;20482;-59
2022/11/30 06:43:38;;;;;;;31.38;21.67;;;;;;;;;;5012246;28;20021;-59
2022/11/30 06:46:05;;;;;;;32.55;19.42;;;;;;;;;;5012319;28;20105;-59
2022/11/30 06:48:31;;;;;;;29.63;20.10;;;;;;;;;;5011185;28;20394;-58
2022/11/30 06:50:57;;;;;;;33.47;20.05;;;;;;;;;;5012156;28;20629;-60
2022/11/30 06:53:24;;;;;;;33.03;20.92;;;;;;;;;;5011987;28;20030;-59
2022/11/30 06:55:50;;;;;;;29.58;19.05;;;;;;;;;;5011959;28;20105;-61
2022/11/30 06:58:16;;;;;;;30.05;19.45;;;;;;;;;;5010686;28;20108;-59
2022/11/30 07:00:42;;;;;;;30.27;19.42;;;;;;;;;;5011514;28;20109;-61
2022/11/30 07:03:10;;;;;;;29.50;19.67;;;;;;;;;;5011597;28;20018;-60
2022/11/30 07:05:40;;;;;;;31.52;18.60;;;;;;;;;;5011658;28;20030;-59
2022/11/30 07:08:06;;;;;;;29.73;18.40;;;;;;;;;;5011943;28;20423;-61
2022/11/30 07:10:32;;;;;;;28.50;17.25;;;;;;;;;;5011802;28;20107;-62
2022/11/30 07:12:59;;;;;;;30.85;19.55;;;;;;;;;;5011524;28;20065;-63
2022/11/30 07:15:25;;;;;;;32.08;18.08;;;;;;;;;;5011470;28;20549;-58
2022/11/30 07:17:51;;;;;;;27.67;18.00;;;;;;;;;;5011850;28;20108;-62
2022/11/30 07:20:17;;;;;;;30.42;19.08;;;;;;;;;;5011777;28;20101;-59
2022/11/30 07:22:43;;;;;;;33.28;19.88;;;;;;;;;;5011704;28;20054;-62
2022/11/30 07:28:10;;;;;;;30.33;18.75;;;;;;;;;;4970442;28;20027;-60
2022/11/30 07:30:37;;;;;;;32.80;20.33;;;;;;;;;;4997550;28;20168;-59
2022/11/30 07:33:02;;;;;;;30.95;19.42;;;;;;;;;;5010828;28;20025;-61
2022/11/30 07:35:28;;;;;;;30.67;19.52;;;;;;;;;;5011619;28;20168;-61
2022/11/30 07:37:54;;;;;;;35.42;21.70;;;;;;;;;;5011096;28;20409;-56
2022/11/30 07:40:20;;;;;;;36.42;20.33;;;;;;;;;;5011142;28;20033;-58
2022/11/30 07:42:46;;;;;;;38.80;21.17;;;;;;;;;;5010516;28;20494;-60
2022/11/30 07:45:12;;;;;;;35.47;20.98;;;;;;;;;;5011782;28;20060;-59
2022/11/30 07:47:38;;;;;;;38.05;22.17;;;;;;;;;;5011419;28;20091;-60
2022/11/30 07:50:05;;;;;;;33.80;20.20;;;;;;;;;;5010008;28;20077;-60
2022/11/30 07:52:31;;;;;;;32.97;20.10;;;;;;;;;;5010017;28;20394;-52
2022/11/30 07:54:57;;;;;;;32.63;19.33;;;;;;;;;;5011026;28;20022;-57
2022/11/30 07:57:23;;;;;;;33.78;20.02;;;;;;;;;;5011348;28;20117;-59
2022/11/30 07:59:49;;;;;;;33.20;19.88;;;;;;;;;;5010996;28;20049;-55
2022/11/30 08:02:15;;;;;;;31.45;19.65;;;;;;;;;;5011413;28;20392;-58
2022/11/30 08:04:41;;;;;;;34.50;20.05;;;;;;;;;;5011136;28;20036;-60
2022/11/30 08:07:07;;;;;;;32.50;19.63;;;;;;;;;;5011443;28;20483;-58
2022/11/30 08:09:33;;;;;;;33.67;19.58;;;;;;;;;;5013994;28;20018;-61
2022/11/30 08:11:59;;;;;;;29.98;19.17;;;;;;;;;;5014217;28;20048;-63
2022/11/30 08:14:25;;;;;;;31.08;18.05;;;;;;;;;;5015259;28;20478;-62
2022/11/30 08:16:51;;;;;;;29.17;18.02;;;;;;;;;;5015332;28;20555;-58
2022/11/30 08:19:17;;;;;;;32.30;19.20;;;;;;;;;;5015316;28;20370;-64
2022/11/30 08:21:43;;;;;;;29.92;17.20;;;;;;;;;;5013992;28;20053;-62
2022/11/30 08:24:12;;;;;;;28.95;17.77;;;;;;;;;;5015039;28;20022;-55
2022/11/30 08:26:38;;;;;;;31.20;19.67;;;;;;;;;;5013767;28;20029;-55
2022/11/30 08:29:04;;;;;;;32.40;20.40;;;;;;;;;;5015000;28;20032;-53
2022/11/30 08:31:32;;;;;;;27.55;17.38;;;;;;;;;;5014944;28;20486;-58
2022/11/30 08:33:59;;;;;;;30.63;20.38;;;;;;;;;;5014895;28;20068;-61
2022/11/30 08:36:26;;;;;;;28.45;17.17;;;;;;;;;;5015287;28;20060;-54
2022/11/30 08:38:52;;;;;;;27.58;18.30;;;;;;;;;;5014775;28;20040;-59
2022/11/30 08:41:20;;;;;;;28.08;17.38;;;;;;;;;;5013420;28;20033;-57
2022/11/30 08:43:46;;;;;;;28.20;17.50;;;;;;;;;;5014765;28;20556;-58
2022/11/30 08:46:13;;;;;;;29.85;18.30;;;;;;;;;;5014569;28;20156;-55
2022/11/30 08:48:39;;;;;;;26.45;17.08;;;;;;;;;;5014739;28;20025;-52
2022/11/30 08:51:06;;;;;;;31.15;19.60;;;;;;;;;;5014506;28;20037;-56
2022/11/30 08:53:33;;;;;;;27.77;18.40;;;;;;;;;;5014023;28;20025;-57
2022/11/30 08:56:07;;;;;;;31.15;19.58;;;;;;;;;;5014018;28;20482;-56
2022/11/30 08:58:34;;;;;;;26.58;17.98;;;;;;;;;;5013829;28;20026;-55
2022/11/30 09:01:16;;;;;;;30.52;19.23;;;;;;;;;;5013679;28;20028;-52
2022/11/30 09:03:43;;;;;;;29.67;19.38;;;;;;;;;;5014277;28;20092;-54
2022/11/30 09:06:14;;;;;;;30.40;18.27;;;;;;;;;;5014391;28;20033;-52
2022/11/30 09:08:41;;;;;;;32.13;18.60;;;;;;;;;;5014432;28;20049;-54
2022/11/30 09:11:11;;;;;;;31.10;19.35;;;;;;;;;;5014335;28;20545;-58
2022/11/30 09:13:37;;;;;;;27.48;17.48;;;;;;;;;;5014096;28;20474;-60
2022/11/30 09:16:04;;;;;;;28.77;17.75;;;;;;;;;;5014487;28;20394;-56
2022/11/30 09:18:30;;;;;;;31.00;17.63;;;;;;;;;;5014536;28;20022;-58
2022/11/30 09:21:03;;;;;;;29.23;18.77;;;;;;;;;;5013146;28;20033;-58
2022/11/30 09:23:30;;;;;;;31.80;19.92;;;;;;;;;;5014317;28;20121;-57
2022/11/30 09:25:57;;;;;;;29.85;18.88;;;;;;;;;;5014121;28;20097;-59
2022/11/30 09:28:23;;;;;;;30.23;19.52;;;;;;;;;;5011946;28;20030;-56
2022/11/30 09:30:49;;;;;;;29.98;18.33;;;;;;;;;;5011743;28;20057;-54
2022/11/30 09:33:15;;;;;;;27.45;18.45;;;;;;;;;;5014084;28;20085;-54
2022/11/30 09:35:41;;;;;;;31.98;19.23;;;;;;;;;;5012304;28;20030;-54
2022/11/30 09:38:07;;;;;;;27.98;17.90;;;;;;;;;;5014167;28;20032;-57
2022/11/30 09:40:34;;;;;;;29.00;17.95;;;;;;;;;;5014060;28;20034;-55
2022/11/30 09:43:03;;;;;;;35.50;20.05;;;;;;;;;;5014137;28;20501;-56
2022/11/30 09:45:31;;;;;;;31.25;18.70;;;;;;;;;;5013705;28;20045;-56
2022/11/30 09:47:57;;;;;;;30.75;20.20;;;;;;;;;;5014052;28;20018;-57
2022/11/30 09:50:25;;;;;;;32.90;20.30;;;;;;;;;;5014187;28;20022;-54
2022/11/30 09:52:56;;;;;;;32.80;20.30;;;;;;;;;;5013426;28;20252;-56
2022/11/30 09:55:33;;;;;;;30.63;20.52;;;;;;;;;;5013604;28;20493;-60
2022/11/30 09:58:03;;;;;;;33.72;19.88;;;;;;;;;;5013472;28;20109;-55
2022/11/30 10:00:29;;;;;;;34.67;20.98;;;;;;;;;;5013554;28;20057;-53
2022/11/30 10:02:57;;;;;;;32.97;20.63;;;;;;;;;;5013947;28;20017;-60
2022/11/30 10:05:23;;;;;;;33.08;21.45;;;;;;;;;;5013345;28;20033;-55
2022/11/30 10:08:01;;;;;;;33.50;20.52;;;;;;;;;;5013457;28;20627;-57
2022/11/30 10:10:27;;;;;;;;;;;;;;;;;;5014067;28;20033;-56
2022/11/30 10:13:00;;;;;;;34.45;20.42;;;;;;;;;;5013162;28;20377;-63
2022/11/30 10:15:44;;;;;;;34.25;21.85;;;;;;;;;;5013546;28;20030;-58
2022/11/30 10:18:17;;;;;;;33.28;19.33;;;;;;;;;;5013580;28;20026;-59
2022/11/30 10:20:54;;;;;;;33.83;21.27;;;;;;;;;;5013579;28;20108;-58
2022/11/30 10:23:21;;;;;;;34.47;21.77;;;;;;;;;;5013447;28;20025;-53
2022/11/30 10:25:57;;;;;;;31.73;20.92;;;;;;;;;;5012967;28;20120;-58
2022/11/30 10:28:30;;;;;;;32.13;19.88;;;;;;;;;;5012043;28;20080;-56
2022/11/30 10:30:56;;;;;;;33.38;22.42;;;;;;;;;;5013399;28;20033;-57
2022/11/30 10:33:24;;;;;;;34.58;22.60;;;;;;;;;;5012294;28;20532;-62
2022/11/30 10:35:51;;;;;;;36.20;22.73;;;;;;;;;;5013308;28;20033;-56
2022/11/30 10:38:24;;;;;;;34.05;21.73;;;;;;;;;;5011486;28;20063;-59
2022/11/30 10:40:57;;;;;;;36.30;22.50;;;;;;;;;;5012589;28;20124;-54
2022/11/30 10:43:29;;;;;;;35.78;21.42;;;;;;;;;;5012677;28;20026;-58
2022/11/30 10:45:56;;;;;;;33.92;21.77;;;;;;;;;;5012968;28;20068;-58
2022/11/30 10:48:21;;;;;;;32.67;19.88;;;;;;;;;;5013062;28;20423;-56
2022/11/30 10:50:48;;;;;;;33.58;20.42;;;;;;;;;;5012402;28;20117;-57
2022/11/30 10:53:14;;;;;;;34.70;22.83;;;;;;;;;;5012310;28;20113;-57
2022/11/30 10:55:42;;;;;;;35.40;21.73;;;;;;;;;;5012828;28;20029;-57
2022/11/30 10:58:17;;;;;;;36.33;22.42;;;;;;;;;;5012894;28;20426;-57
2022/11/30 11:00:47;;;;;;;37.38;22.05;;;;;;;;;;5012547;28;20080;-56
2022/11/30 11:03:24;;;;;;;38.85;22.88;;;;;;;;;;5012628;28;20053;-59
2022/11/30 11:06:04;;;;;;;37.72;22.35;;;;;;;;;;5012414;28;20025;-59
2022/11/30 11:08:30;;;;;;;36.17;21.08;;;;;;;;;;5012485;28;20025;-57
2022/11/30 11:10:56;;;;;;;35.58;21.05;;;;;;;;;;5012451;28;20026;-57
2022/11/30 11:13:34;;;;;;;35.65;20.70;;;;;;;;;;5012023;28;20050;-57
2022/11/30 11:16:01;;;;;;;33.95;20.40;;;;;;;;;;5012348;28;20117;-55
2022/11/30 11:18:28;;;;;;;34.72;21.83;;;;;;;;;;5012334;28;20088;-59
2022/11/30 11:21:06;;;;;;;34.80;20.42;;;;;;;;;;5012128;28;20026;-59
2022/11/30 11:23:39;;;;;;;36.10;21.27;;;;;;;;;;5011676;28;20032;-59
2022/11/30 11:26:06;;;;;;;40.60;21.60;;;;;;;;;;5011647;28;20058;-56
2022/11/30 11:28:35;;;;;;;35.25;22.33;;;;;;;;;;5007957;28;20022;-59
2022/11/30 11:31:14;;;;;;;33.30;19.15;;;;;;;;;;5011832;28;20681;-54
2022/11/30 11:33:48;;;;;;;32.65;19.40;;;;;;;;;;5011792;28;20025;-55
2022/11/30 11:36:15;;;;;;;32.75;20.23;;;;;;;;;;5010598;28;20030;-55
2022/11/30 11:38:47;;;;;;;33.25;20.67;;;;;;;;;;5011850;28;20041;-60
2022/11/30 11:41:13;;;;;;;31.23;18.67;;;;;;;;;;5013091;28;20041;-60
2022/11/30 11:43:58;;;;;;;31.63;19.40;;;;;;;;;;5011150;28;20022;-59
2022/11/30 11:46:24;;;;;;;34.80;20.50;;;;;;;;;;5011811;28;20032;-57
2022/11/30 11:48:59;;;;;;;32.53;20.77;;;;;;;;;;5011780;28;20234;-57
2022/11/30 11:51:44;;;;;;;30.80;19.13;;;;;;;;;;5012086;28;20045;-61
2022/11/30 11:54:23;;;;;;;32.60;20.77;;;;;;;;;;5011718;28;20044;-60
2022/11/30 11:56:49;;;;;;;31.35;20.23;;;;;;;;;;5010519;28;20030;-55
2022/11/30 11:59:15;;;;;;;33.10;21.05;;;;;;;;;;5011790;28;20371;-57
2022/11/30 12:01:44;;;;;;;31.70;20.20;;;;;;;;;;5011515;28;20037;-58
2022/11/30 12:04:10;;;;;;;31.63;20.30;;;;;;;;;;5011721;28;20037;-56
2022/11/30 12:06:37;;;;;;;32.05;20.75;;;;;;;;;;5012040;28;20018;-58
2022/11/30 12:09:06;;;;;;;31.85;21.15;;;;;;;;;;5011796;28;20022;-52
2022/11/30 12:11:39;;;;;;;30.17;20.60;;;;;;;;;;5010204;28;20121;-57
2022/11/30 12:14:08;;;;;;;31.33;20.23;;;;;;;;;;5011513;28;20390;-59
2022/11/30 12:16:53;;;;;;;29.58;18.65;;;;;;;;;;5010461;28;20026;-59
2022/11/30 12:19:21;;;;;;;29.10;18.95;;;;;;;;;;5012158;28;20076;-59
2022/11/30 12:21:57;;;;;;;29.52;19.05;;;;;;;;;;5011914;28;20029;-52
2022/11/30 12:24:29;;;;;;;28.50;18.60;;;;;;;;;;5011545;28;20057;-61
2022/11/30 12:26:55;;;;;;;30.08;19.05;;;;;;;;;;5011725;28;20508;-58
2022/11/30 12:29:29;;;;;;;27.63;17.48;;;;;;;;;;5010423;28;20036;-55
2022/11/30 12:31:58;;;;;;;29.33;19.48;;;;;;;;;;5011660;28;20026;-60
2022/11/30 12:34:36;;;;;;;33.13;19.60;;;;;;;;;;5011479;28;20026;-57
2022/11/30 12:37:14;;;;;;;30.02;19.58;;;;;;;;;;5010108;28;20022;-56
2022/11/30 12:39:58;;;;;;;28.35;18.10;;;;;;;;;;5011130;28;20113;-57
2022/11/30 12:42:30;;;;;;;28.15;18.98;;;;;;;;;;5011536;28;20473;-58
2022/11/30 12:44:56;;;;;;;28.67;17.15;;;;;;;;;;5011314;28;20030;-57
2022/11/30 12:47:41;;;;;;;29.35;17.77;;;;;;;;;;5009910;28;20030;-54
2022/11/30 12:50:08;;;;;;;27.65;17.45;;;;;;;;;;5010999;28;20030;-57
2022/11/30 12:52:34;;;;;;;28.10;18.15;;;;;;;;;;5010975;28;20029;-61
2022/11/30 12:55:18;;;;;;;30.60;19.00;;;;;;;;;;5012362;28;20026;-62
2022/11/30 12:57:47;;;;;;;33.08;20.38;;;;;;;;;;5014805;28;20034;-56
2022/11/30 13:00:18;;;;;;;29.10;18.50;;;;;;;;;;5014827;28;20033;-58
2022/11/30 13:02:47;;;;;;;29.83;18.75;;;;;;;;;;5014491;28;20034;-60
2022/11/30 13:05:16;;;;;;;28.85;18.27;;;;;;;;;;5013224;28;20076;-57
2022/11/30 13:07:45;;;;;;;28.15;17.95;;;;;;;;;;5013177;28;20022;-59
2022/11/30 13:10:11;;;;;;;29.65;18.40;;;;;;;;;;5014064;28;20112;-51
2022/11/30 13:12:40;;;;;;;28.13;18.70;;;;;;;;;;5014235;28;20030;-57
2022/11/30 13:15:12;;;;;;;28.77;17.55;;;;;;;;;;5013982;28;20030;-60
2022/11/30 13:17:38;;;;;;;30.58;18.83;;;;;;;;;;5014483;28;20049;-57
2022/11/30 13:20:16;;;;;;;29.90;18.50;;;;;;;;;;5013990;28;20656;-54
2022/11/30 13:22:42;;;;;;;31.88;20.05;;;;;;;;;;5013088;28;20029;-58
2022/11/30 13:25:22;;;;;;;33.90;19.30;;;;;;;;;;5014250;28;20022;-54
2022/11/30 13:28:01;;;;;;;29.80;19.15;;;;;;;;;;5013193;28;20018;-56
2022/11/30 13:30:36;;;;;;;31.88;20.35;;;;;;;;;;5014195;28;20038;-60
2022/11/30 13:33:21;;;;;;;29.35;18.88;;;;;;;;;;5013706;28;20442;-57
2022/11/30 13:35:54;;;;;;;29.10;18.65;;;;;;;;;;5012168;28;20224;-59
2022/11/30 13:38:21;;;;;;;30.27;19.20;;;;;;;;;;5014171;28;20029;-57
2022/11/30 13:41:06;;;;;;;32.38;20.50;;;;;;;;;;5013801;28;20034;-58
2022/11/30 13:43:41;;;;;;;32.03;20.17;;;;;;;;;;5014058;28;20041;-61
2022/11/30 13:46:13;;;;;;;32.35;19.27;;;;;;;;;;5014147;28;20565;-58
2022/11/30 13:48:41;;;;;;;31.45;18.95;;;;;;;;;;5012511;28;20057;-54
2022/11/30 13:51:07;;;;;;;28.77;19.50;;;;;;;;;;5012651;28;20394;-58
2022/11/30 13:53:36;;;;;;;29.35;18.33;;;;;;;;;;5012120;28;20430;-62
2022/11/30 13:56:06;;;;;;;28.23;17.65;;;;;;;;;;5013971;28;20029;-59
2022/11/30 13:58:33;;;;;;;27.45;19.02;;;;;;;;;;5013936;28;20041;-63
2022/11/30 14:01:00;;;;;;;28.27;17.80;;;;;;;;;;5013457;28;20030;-56
2022/11/30 14:03:28;;;;;;;27.35;17.60;;;;;;;;;;5013575;28;20018;-58
2022/11/30 14:05:54;;;;;;;26.80;17.77;;;;;;;;;;5013666;28;20029;-57
2022/11/30 14:08:20;;;;;;;26.45;17.13;;;;;;;;;;5013397;28;20082;-55
2022/11/30 14:10:47;;;;;;;27.35;18.27;;;;;;;;;;5013392;28;20436;-56
2022/11/30 14:13:14;;;;;;;31.45;18.17;;;;;;;;;;5013374;28;20497;-62
2022/11/30 14:15:44;;;;;;;29.30;17.70;;;;;;;;;;5013623;28;20122;-56
2022/11/30 14:18:10;;;;;;;26.98;16.73;;;;;;;;;;5013359;28;20088;-59
2022/11/30 14:20:38;;;;;;;28.27;17.83;;;;;;;;;;5013309;28;20018;-58
2022/11/30 14:23:04;;;;;;;;;;;;;;;;;;5013039;28;20401;-56
2022/11/30 14:25:32;;;;;;;27.08;16.45;;;;;;;;;;5013054;28;19905;-54
2022/11/30 14:27:59;;;;;;;25.67;16.05;;;;;;;;;;5012183;28;20044;-57